createdAt,value
2019-05-14T00:01:22.195Z,99559.15
2019-05-14T00:03:51.900Z,99563.80
2019-05-14T00:06:21.905Z,99549.15
2019-05-14T00:08:52.263Z,99541.27
2019-05-14T00:11:22.058Z,99553.09
2019-05-14T00:13:52.083Z,99549.02
2019-05-14T00:16:24.257Z,99543.17
2019-05-14T00:18:52.925Z,99554.73
2019-05-14T00:21:22.408Z,99559.08
2019-05-14T00:23:51.921Z,99562.17
2019-05-14T00:26:21.604Z,99566.62
2019-05-14T00:28:51.346Z,99573.31
2019-05-14T00:31:21.374Z,99575.49
2019-05-14T00:33:51.391Z,99577.55
2019-05-14T00:36:21.559Z,99574.22
2019-05-14T00:38:51.419Z,99571.38
2019-05-14T00:41:21.531Z,99573.35
2019-05-14T00:43:51.471Z,99560.83
2019-05-14T00:46:21.317Z,99557.16
2019-05-14T00:48:51.403Z,99554.40
2019-05-14T00:51:21.454Z,99562.47
2019-05-14T00:53:51.528Z,99557.80
2019-05-14T00:56:21.718Z,99552.97
2019-05-14T00:58:52.128Z,99556.95
2019-05-14T01:01:21.821Z,99545.32
2019-05-14T01:03:52.077Z,99547.02
2019-05-14T01:06:21.963Z,99544.53
2019-05-14T01:08:51.978Z,99537.89
2019-05-14T01:11:22.125Z,99525.71
2019-05-14T01:13:52.217Z,99521.53
2019-05-14T01:16:22.337Z,99526.89
2019-05-14T01:18:52.060Z,99530.44
2019-05-14T01:21:22.038Z,99533.56
2019-05-14T01:23:51.572Z,99531.02
2019-05-14T01:26:21.797Z,99532.81
2019-05-14T01:28:51.554Z,99539.14
2019-05-14T01:31:21.861Z,99538.08
2019-05-14T01:33:51.713Z,99541.20
2019-05-14T01:36:21.613Z,99548.11
2019-05-14T01:38:51.469Z,99545.92
2019-05-14T01:41:22.334Z,99535.83
2019-05-14T01:43:51.955Z,99540.94
2019-05-14T01:46:21.352Z,99539.81
2019-05-14T01:48:52.133Z,99546.72
2019-05-14T01:51:22.335Z,99549.94
2019-05-14T01:53:52.202Z,99549.73
2019-05-14T01:56:21.670Z,99552.75
2019-05-14T01:58:52.318Z,99549.08
2019-05-14T02:01:22.099Z,99543.94
2019-05-14T02:03:51.887Z,99542.24
2019-05-14T02:06:21.437Z,99538.37
2019-05-14T02:08:51.441Z,99532.42
2019-05-14T02:11:21.520Z,99533.75
2019-05-14T02:13:51.846Z,99527.11
2019-05-14T02:16:21.921Z,99524.73
2019-05-14T02:18:52.244Z,99529.39
2019-05-14T02:21:22.830Z,99529.77
2019-05-14T02:23:52.311Z,99528.98
2019-05-14T02:26:22.173Z,99513.92
2019-05-14T02:28:51.714Z,99508.59
2019-05-14T02:31:21.182Z,99500.67
2019-05-14T02:33:50.841Z,99490.72
2019-05-14T02:36:20.261Z,99510.63
2019-05-14T02:38:49.785Z,99532.69
2019-05-14T02:41:19.745Z,99525.55
2019-05-14T02:43:50.368Z,99524.44
2019-05-14T02:46:21.878Z,99519.64
2019-05-14T02:48:51.237Z,99519.16
2019-05-14T02:51:20.738Z,99520.19
2019-05-14T02:53:50.179Z,99511.86
2019-05-14T02:56:20.486Z,99510.97
2019-05-14T02:58:50.223Z,99502.44
2019-05-14T03:01:20.177Z,99488.56
2019-05-14T03:03:49.858Z,99504.16
2019-05-14T03:06:20.271Z,99504.95
2019-05-14T03:08:49.826Z,99504.74
2019-05-14T03:11:20.177Z,99494.42
2019-05-14T03:13:49.882Z,99494.05
2019-05-14T03:16:30.010Z,99496.98
2019-05-14T03:18:50.765Z,99498.51
2019-05-14T03:21:20.328Z,99496.31
2019-05-14T03:23:49.996Z,99505.70
2019-05-14T03:26:20.012Z,99520.55
2019-05-14T03:28:50.113Z,99525.56
2019-05-14T03:31:22.375Z,99537.59
2019-05-14T03:33:52.806Z,99532.56
2019-05-14T03:36:26.439Z,99529.06
2019-05-14T03:38:53.425Z,99525.69
2019-05-14T03:41:22.856Z,99528.89
2019-05-14T03:43:52.407Z,99533.44
2019-05-14T03:46:39.800Z,99532.22
2019-05-14T03:48:53.271Z,99519.98
2019-05-14T03:51:22.660Z,99517.02
2019-05-14T03:54:01.883Z,99526.60
2019-05-14T03:56:23.440Z,99522.05
2019-05-14T03:58:52.928Z,99514.50
2019-05-14T04:01:22.704Z,99505.77
2019-05-14T04:03:52.701Z,99505.95
2019-05-14T04:06:23.883Z,99504.65
2019-05-14T04:08:54.615Z,99505.33
2019-05-14T04:11:29.369Z,99506.99
2019-05-14T04:14:00.547Z,99510.42
2019-05-14T04:16:33.042Z,99498.30
2019-05-14T04:19:05.167Z,99484.08
2019-05-14T04:21:39.848Z,99489.01
2019-05-14T04:24:10.244Z,99491.29
2019-05-14T04:26:56.379Z,99497.55
2019-05-14T04:29:14.048Z,99500.94
2019-05-14T04:31:45.142Z,99509.75
2019-05-14T04:34:15.311Z,99511.71
2019-05-14T04:36:45.322Z,99507.03
2019-05-14T04:39:15.137Z,99496.80
2019-05-14T04:41:44.729Z,99493.16
2019-05-14T04:44:14.197Z,99511.06
2019-05-14T04:46:43.602Z,99539.72
2019-05-14T04:49:13.041Z,99548.95
2019-05-14T04:51:42.483Z,99546.93
2019-05-14T04:54:11.978Z,99555.74
2019-05-14T04:56:41.764Z,99567.89
2019-05-14T04:59:11.534Z,99567.67
2019-05-14T05:01:43.249Z,99562.95
2019-05-14T05:04:12.712Z,99553.36
2019-05-14T05:06:42.808Z,99546.66
2019-05-14T05:09:12.286Z,99549.32
2019-05-14T05:11:41.683Z,99557.28
2019-05-14T05:14:11.326Z,99561.56
2019-05-14T05:16:41.147Z,99551.45
2019-05-14T05:19:10.718Z,99550.33
2019-05-14T05:21:40.139Z,99548.80
2019-05-14T05:24:09.863Z,99546.19
2019-05-14T05:26:39.421Z,99534.56
2019-05-14T05:29:10.562Z,99524.91
2019-05-14T05:31:40.248Z,99529.70
2019-05-14T05:34:09.817Z,99530.08
2019-05-14T05:36:39.206Z,99524.97
2019-05-14T05:39:09.119Z,99536.05
2019-05-14T05:41:39.247Z,99530.80
2019-05-14T05:44:08.647Z,99532.50
2019-05-14T05:46:38.868Z,99529.53
2019-05-14T05:49:08.470Z,99516.17
2019-05-14T05:51:39.298Z,99508.21
2019-05-14T05:54:09.375Z,99522.22
2019-05-14T05:56:38.935Z,99535.84
2019-05-14T05:59:09.448Z,99528.32
2019-05-14T06:01:46.133Z,99531.06
2019-05-14T06:04:10.582Z,99533.67
2019-05-14T06:06:39.972Z,99532.30
2019-05-14T06:09:10.719Z,99527.98
2019-05-14T06:11:40.189Z,99526.88
2019-05-14T06:14:09.625Z,99528.20
2019-05-14T06:16:39.174Z,99529.47
2019-05-14T06:19:08.616Z,99533.39
2019-05-14T06:21:39.753Z,99540.02
2019-05-14T06:24:19.129Z,99542.66
2019-05-14T06:26:48.973Z,99536.95
2019-05-14T06:29:18.733Z,99533.75
2019-05-14T06:31:49.588Z,99532.95
2019-05-14T06:34:19.106Z,99541.66
2019-05-14T06:36:48.916Z,99570.75
2019-05-14T06:39:18.520Z,99570.75
2019-05-14T06:41:49.085Z,99576.59
2019-05-14T06:44:18.885Z,99579.47
2019-05-14T06:46:50.871Z,99557.70
2019-05-14T06:49:19.583Z,99534.36
2019-05-14T06:51:49.193Z,99529.77
2019-05-14T06:54:19.644Z,99529.91
2019-05-14T06:56:49.125Z,99536.63
2019-05-14T06:59:18.544Z,99517.82
2019-05-14T07:01:49.000Z,99495.09
2019-05-14T07:04:18.526Z,99488.27
2019-05-14T07:06:48.626Z,99499.06
2019-05-14T07:09:18.544Z,99496.62
2019-05-14T07:11:49.097Z,99512.33
2019-05-14T07:14:19.058Z,99525.69
2019-05-14T07:16:48.711Z,99518.83
2019-05-14T07:19:19.201Z,99506.41
2019-05-14T07:21:49.364Z,99488.80
2019-05-14T07:24:19.685Z,99501.20
2019-05-14T07:26:49.547Z,99509.58
2019-05-14T07:29:19.090Z,99504.19
2019-05-14T07:31:49.009Z,99504.42
2019-05-14T07:34:19.197Z,99526.13
2019-05-14T07:36:49.284Z,99533.66
2019-05-14T07:39:18.843Z,99534.03
2019-05-14T07:41:48.513Z,99528.89
2019-05-14T07:44:18.379Z,99542.96
2019-05-14T07:46:48.442Z,99539.34
2019-05-14T07:49:18.466Z,99530.72
2019-05-14T07:51:48.286Z,99491.97
2019-05-14T07:54:19.517Z,99498.80
2019-05-14T07:56:52.495Z,99515.68
2019-05-14T07:59:20.280Z,99522.09
2019-05-14T08:01:49.740Z,99526.06
2019-05-14T08:04:20.051Z,99526.65
2019-05-14T08:06:50.613Z,99533.45
2019-05-14T08:09:20.057Z,99527.59
2019-05-14T08:11:49.426Z,99547.20
2019-05-14T08:14:18.854Z,99526.12
2019-05-14T08:16:48.942Z,99496.42
2019-05-14T08:19:26.939Z,99474.70
2019-05-14T08:21:49.646Z,99473.78
2019-05-14T08:24:23.729Z,99470.59
2019-05-14T08:26:50.321Z,99451.55
2019-05-14T08:29:19.771Z,99479.22
2019-05-14T08:31:49.173Z,99483.76
2019-05-14T08:34:19.157Z,99495.44
2019-05-14T08:36:48.942Z,99507.98
2019-05-14T08:39:18.677Z,99512.44
2019-05-14T08:41:58.538Z,99487.35
2019-05-14T08:44:19.860Z,99480.31
2019-05-14T08:46:49.550Z,99481.55
2019-05-14T08:49:18.993Z,99486.44
2019-05-14T08:52:04.507Z,99482.24
2019-05-14T08:54:34.106Z,99472.37
2019-05-14T08:57:03.591Z,99470.89
2019-05-14T08:59:33.048Z,99468.74
2019-05-14T09:02:06.656Z,99468.28
2019-05-14T09:04:33.680Z,99462.13
2019-05-14T09:07:03.090Z,99481.55
2019-05-14T09:09:32.530Z,99477.33
2019-05-14T09:12:02.109Z,99448.48
2019-05-14T09:14:31.567Z,99430.64
2019-05-14T09:17:00.945Z,99437.74
2019-05-14T09:19:30.401Z,99447.95
2019-05-14T09:21:59.925Z,99468.34
2019-05-14T09:24:29.540Z,99445.05
2019-05-14T09:26:59.339Z,99420.69
2019-05-14T09:29:29.890Z,99371.67
2019-05-14T09:31:59.572Z,99385.50
2019-05-14T09:34:29.252Z,99399.89
2019-05-14T09:36:59.494Z,99396.80
2019-05-14T09:39:29.285Z,99424.23
2019-05-14T09:41:58.666Z,99445.05
2019-05-14T09:44:29.267Z,99440.02
2019-05-14T09:46:59.520Z,99424.58
2019-05-14T09:49:29.665Z,99410.00
2019-05-14T09:51:59.147Z,99399.48
2019-05-14T09:54:28.912Z,99413.92
2019-05-14T09:56:59.150Z,99429.56
2019-05-14T09:59:28.986Z,99416.52
2019-05-14T10:01:58.750Z,99413.84
2019-05-14T10:04:28.334Z,99396.88
2019-05-14T10:06:59.198Z,99396.88
2019-05-14T10:09:29.157Z,99411.23
2019-05-14T10:11:58.633Z,99408.66
2019-05-14T10:14:29.814Z,99410.97
2019-05-14T10:16:59.332Z,99414.54
2019-05-14T10:19:29.682Z,99421.13
2019-05-14T10:21:59.338Z,99410.35
2019-05-14T10:24:29.295Z,99408.98
2019-05-14T10:26:58.812Z,99389.47
2019-05-14T10:29:28.680Z,99376.48
2019-05-14T10:31:59.166Z,99377.62
2019-05-14T10:34:28.953Z,99365.45
2019-05-14T10:36:59.101Z,99353.34
2019-05-14T10:39:29.742Z,99331.37
2019-05-14T10:41:59.620Z,99337.81
2019-05-14T10:44:29.421Z,99349.07
2019-05-14T10:46:59.282Z,99339.27
2019-05-14T10:49:30.115Z,99330.41
2019-05-14T10:51:59.791Z,99336.69
2019-05-14T10:54:29.560Z,99354.92
2019-05-14T10:56:59.578Z,99341.96
2019-05-14T10:59:29.569Z,99337.59
2019-05-14T11:01:59.085Z,99345.44
2019-05-14T11:04:28.807Z,99314.92
2019-05-14T11:06:58.440Z,99314.92
2019-05-14T11:09:28.607Z,99325.94
2019-05-14T11:11:58.416Z,99324.91
2019-05-14T11:14:31.675Z,99327.79
2019-05-14T11:16:59.396Z,99309.83
2019-05-14T11:19:28.754Z,99301.56
2019-05-14T11:21:58.174Z,99312.94
2019-05-14T11:24:29.572Z,99317.80
2019-05-14T11:26:59.324Z,99316.23
2019-05-14T11:29:29.786Z,99309.45
2019-05-14T11:31:59.444Z,99307.49
2019-05-14T11:34:28.964Z,99311.08
2019-05-14T11:36:59.118Z,99304.24
2019-05-14T11:39:29.050Z,99291.72
2019-05-14T11:41:59.219Z,99291.39
2019-05-14T11:44:28.829Z,99307.20
2019-05-14T11:47:02.416Z,99302.58
2019-05-14T11:49:29.354Z,99307.67
2019-05-14T11:52:06.805Z,99309.76
2019-05-14T11:54:29.969Z,99311.33
2019-05-14T11:56:59.329Z,99330.19
2019-05-14T11:59:28.851Z,99308.14
2019-05-14T12:01:59.306Z,99305.11
2019-05-14T12:04:28.912Z,99276.83
2019-05-14T12:06:59.189Z,99312.94
2019-05-14T12:09:28.903Z,99312.94
2019-05-14T12:11:58.825Z,99307.20
2019-05-14T12:14:28.449Z,99300.49
2019-05-14T12:16:59.918Z,99291.41
2019-05-14T12:19:29.081Z,99290.95
2019-05-14T12:22:06.484Z,99286.14
2019-05-14T12:24:29.701Z,99293.63
2019-05-14T12:26:59.181Z,99280.21
2019-05-14T12:29:29.369Z,99266.73
2019-05-14T12:31:58.921Z,99264.02
2019-05-14T12:34:29.587Z,99255.91
2019-05-14T12:36:59.403Z,99257.69
2019-05-14T12:39:29.443Z,99263.02
2019-05-14T12:41:58.938Z,99256.47
2019-05-14T12:44:29.222Z,99253.00
2019-05-14T12:46:58.955Z,99248.05
2019-05-14T12:49:28.320Z,99249.38
2019-05-14T12:51:59.099Z,99234.45
2019-05-14T12:54:29.829Z,99236.44
2019-05-14T12:56:59.409Z,99238.47
2019-05-14T12:59:28.940Z,99230.75
2019-05-14T13:01:58.855Z,99214.95
2019-05-14T13:04:28.621Z,99212.26
2019-05-14T13:06:59.717Z,99221.56
2019-05-14T13:09:29.500Z,99217.64
2019-05-14T13:11:58.981Z,99213.20
2019-05-14T13:14:28.458Z,99213.20
2019-05-14T13:16:59.779Z,99215.34
2019-05-14T13:19:29.137Z,99211.83
2019-05-14T13:22:10.021Z,99209.52
2019-05-14T13:24:29.726Z,99199.31
2019-05-14T13:26:59.085Z,99198.58
2019-05-14T13:29:29.095Z,99192.83
2019-05-14T13:31:59.256Z,99183.98
2019-05-14T13:34:29.272Z,99185.57
2019-05-14T13:36:59.734Z,99176.47
2019-05-14T13:39:29.332Z,99175.34
2019-05-14T13:41:59.051Z,99170.33
2019-05-14T13:44:29.175Z,99171.69
2019-05-14T13:46:59.736Z,99174.94
2019-05-14T13:49:29.746Z,99165.97
2019-05-14T13:51:59.670Z,99164.42
2019-05-14T13:54:31.623Z,99166.37
2019-05-14T13:57:00.141Z,99161.53
2019-05-14T13:59:29.650Z,99154.27
2019-05-14T14:01:59.394Z,99151.84
2019-05-14T14:04:28.787Z,99157.62
2019-05-14T14:06:59.074Z,99157.66
2019-05-14T14:09:31.561Z,99159.73
2019-05-14T14:11:59.867Z,99156.28
2019-05-14T14:14:29.402Z,99151.05
2019-05-14T14:16:58.869Z,99151.77
2019-05-14T14:19:28.383Z,99140.67
2019-05-14T14:21:59.044Z,99139.52
2019-05-14T14:24:29.244Z,99133.77
2019-05-14T14:26:58.828Z,99131.75
2019-05-14T14:29:28.229Z,99125.11
2019-05-14T14:31:58.982Z,99121.83
2019-05-14T14:34:29.140Z,99123.33
2019-05-14T14:36:59.499Z,99110.14
2019-05-14T14:39:28.995Z,99113.06
2019-05-14T14:41:58.679Z,99102.39
2019-05-14T14:44:29.167Z,99107.53
2019-05-14T14:46:58.839Z,99098.81
2019-05-14T14:49:28.317Z,99102.05
2019-05-14T14:51:58.927Z,99095.36
2019-05-14T14:54:29.664Z,99097.94
2019-05-14T14:56:59.318Z,99091.48
2019-05-14T14:59:30.461Z,99096.55
2019-05-14T15:02:00.183Z,99096.69
2019-05-14T15:04:29.572Z,99099.30
2019-05-14T15:06:59.873Z,99101.69
2019-05-14T15:09:29.378Z,99096.75
2019-05-14T15:11:59.841Z,99095.42
2019-05-14T15:14:29.887Z,99092.25
2019-05-14T15:16:59.429Z,99090.99
2019-05-14T15:19:29.724Z,99078.03
2019-05-14T15:21:59.514Z,99072.42
2019-05-14T15:24:28.898Z,99072.42
2019-05-14T15:27:06.467Z,99060.80
2019-05-14T15:29:29.532Z,99052.52
2019-05-14T15:31:59.360Z,99059.27
2019-05-14T15:34:29.731Z,99050.59
2019-05-14T15:36:59.990Z,99054.34
2019-05-14T15:39:30.203Z,99041.02
2019-05-14T15:42:05.100Z,99043.66
2019-05-14T15:44:47.595Z,99048.97
2019-05-14T15:47:02.345Z,99043.78
2019-05-14T15:49:31.833Z,99033.78
2019-05-14T15:52:01.241Z,99029.71
2019-05-14T15:54:42.344Z,99021.41
2019-05-14T15:57:01.979Z,99017.98
2019-05-14T15:59:31.377Z,99021.34
2019-05-14T16:02:00.854Z,99025.55
2019-05-14T16:04:30.367Z,99027.95
2019-05-14T16:06:59.913Z,99027.75
2019-05-14T16:09:29.364Z,99027.66
2019-05-14T16:11:58.994Z,99031.04
2019-05-14T16:14:30.004Z,99021.95
2019-05-14T16:16:59.683Z,99032.65
2019-05-14T16:19:29.221Z,99039.79
2019-05-14T16:21:58.804Z,99039.02
2019-05-14T16:24:28.664Z,99040.00
2019-05-14T16:27:00.264Z,99034.17
2019-05-14T16:29:44.202Z,99032.77
2019-05-14T16:32:00.699Z,99030.98
2019-05-14T16:34:30.055Z,99039.37
2019-05-14T16:36:59.489Z,99038.39
2019-05-14T16:39:29.057Z,99043.05
2019-05-14T16:41:58.621Z,99053.79
2019-05-14T16:44:28.406Z,99051.61
2019-05-14T16:46:58.639Z,99051.13
2019-05-14T16:49:29.588Z,99035.50
2019-05-14T16:51:59.754Z,99047.94
2019-05-14T16:54:29.783Z,99041.05
2019-05-14T16:56:59.431Z,99044.29
2019-05-14T16:59:29.576Z,99031.05
2019-05-14T17:01:59.234Z,99031.05
2019-05-14T17:04:29.416Z,99028.70
2019-05-14T17:06:59.201Z,99026.59
2019-05-14T17:09:28.660Z,99025.61
2019-05-14T17:12:00.508Z,99031.22
2019-05-14T17:14:30.050Z,99021.11
2019-05-14T17:16:59.737Z,99014.95
2019-05-14T17:19:29.816Z,99013.38
2019-05-14T17:22:02.707Z,99022.90
2019-05-14T17:24:32.297Z,99025.22
2019-05-14T17:27:01.795Z,99028.23
2019-05-14T17:29:31.201Z,99023.37
2019-05-14T17:32:00.815Z,99023.37
2019-05-14T17:34:30.220Z,99024.44
2019-05-14T17:36:59.649Z,99018.48
2019-05-14T17:39:29.178Z,99011.53
2019-05-14T17:41:59.023Z,99025.31
2019-05-14T17:44:28.612Z,99026.56
2019-05-14T17:46:58.689Z,99023.84
2019-05-14T17:49:28.521Z,99030.91
2019-05-14T17:51:58.228Z,99023.05
2019-05-14T17:54:28.567Z,99028.87
2019-05-14T17:56:59.250Z,99033.70
2019-05-14T17:59:29.787Z,99036.01
2019-05-14T18:01:59.490Z,99032.37
2019-05-14T18:04:28.939Z,99028.94
2019-05-14T18:06:59.192Z,99042.03
2019-05-14T18:09:29.456Z,99041.05
2019-05-14T18:12:01.766Z,99046.11
2019-05-14T18:14:31.692Z,99058.42
2019-05-14T18:17:01.186Z,99047.00
2019-05-14T18:19:30.633Z,99041.42
2019-05-14T18:22:00.112Z,99047.41
2019-05-14T18:24:29.580Z,99055.89
2019-05-14T18:27:00.116Z,99054.88
2019-05-14T18:29:29.757Z,99051.98
2019-05-14T18:32:01.443Z,99050.31
2019-05-14T18:34:30.396Z,99054.61
2019-05-14T18:37:01.302Z,99064.52
2019-05-14T18:39:31.299Z,99072.60
2019-05-14T18:42:00.974Z,99080.36
2019-05-14T18:44:30.712Z,99074.91
2019-05-14T18:47:00.197Z,99071.14
2019-05-14T18:49:29.597Z,99070.86
2019-05-14T18:51:59.456Z,99060.83
2019-05-14T18:54:29.504Z,99065.55
2019-05-14T18:56:59.750Z,99069.94
2019-05-14T18:59:30.763Z,99072.50
2019-05-14T19:02:00.389Z,99073.60
2019-05-14T19:04:29.887Z,99079.16
2019-05-14T19:06:59.394Z,99089.45
2019-05-14T19:09:29.296Z,99083.89
2019-05-14T19:11:58.965Z,99096.36
2019-05-14T19:14:29.243Z,99092.84
2019-05-14T19:16:58.886Z,99099.53
2019-05-14T19:19:29.325Z,99096.02
2019-05-14T19:21:58.975Z,99092.51
2019-05-14T19:24:28.808Z,99098.69
2019-05-14T19:26:59.600Z,99103.03
2019-05-14T19:29:29.090Z,99095.16
2019-05-14T19:31:58.685Z,99089.12
2019-05-14T19:34:28.708Z,99084.77
2019-05-14T19:36:58.375Z,99084.14
2019-05-14T19:39:28.275Z,99087.30
2019-05-14T19:41:57.939Z,99086.22
2019-05-14T19:44:29.618Z,99086.44
2019-05-14T19:46:59.208Z,99082.59
2019-05-14T19:49:28.963Z,99084.05
2019-05-14T19:51:58.866Z,99085.74
2019-05-14T19:54:29.252Z,99088.14
2019-05-14T19:57:00.890Z,99084.13
2019-05-14T19:59:30.072Z,99084.14
2019-05-14T20:01:59.956Z,99090.64
2019-05-14T20:04:29.411Z,99084.46
2019-05-14T20:06:58.840Z,99082.50
2019-05-14T20:09:28.319Z,99085.31
2019-05-14T20:11:58.225Z,99075.41
2019-05-14T20:14:28.734Z,99074.99
2019-05-14T20:16:58.407Z,99079.34
2019-05-14T20:19:28.670Z,99077.08
2019-05-14T20:21:58.757Z,99069.20
2019-05-14T20:24:28.450Z,99067.14
2019-05-14T20:27:08.186Z,99068.23
2019-05-14T20:29:30.235Z,99070.05
2019-05-14T20:32:01.890Z,99075.59
2019-05-14T20:34:30.792Z,99073.63
2019-05-14T20:37:00.338Z,99076.92
2019-05-14T20:39:31.620Z,99082.96
2019-05-14T20:42:00.817Z,99078.94
2019-05-14T20:44:30.359Z,99079.79
2019-05-14T20:46:59.940Z,99070.25
2019-05-14T20:49:29.324Z,99074.48
2019-05-14T20:51:59.494Z,99074.36
2019-05-14T20:54:30.448Z,99070.91
2019-05-14T20:57:00.217Z,99076.50
2019-05-14T20:59:29.737Z,99075.08
2019-05-14T21:01:59.229Z,99066.62
2019-05-14T21:04:28.617Z,99069.52
2019-05-14T21:06:58.734Z,99069.89
2019-05-14T21:09:28.961Z,99075.56
2019-05-14T21:11:58.674Z,99081.00
2019-05-14T21:14:28.109Z,99075.48
2019-05-14T21:16:57.482Z,99079.67
2019-05-14T21:19:28.324Z,99081.23
2019-05-14T21:21:58.160Z,99079.82
2019-05-14T21:24:29.544Z,99082.27
2019-05-14T21:26:58.941Z,99082.39
2019-05-14T21:29:30.536Z,99083.95
2019-05-14T21:32:01.532Z,99086.97
2019-05-14T21:34:30.775Z,99093.89
2019-05-14T21:37:00.333Z,99090.87
2019-05-14T21:39:29.704Z,99083.47
2019-05-14T21:41:59.093Z,99087.88
2019-05-14T21:44:28.737Z,99090.67
2019-05-14T21:46:58.942Z,99088.61
2019-05-14T21:49:28.491Z,99091.41
2019-05-14T21:51:58.423Z,99081.25
2019-05-14T21:54:30.949Z,99083.67
2019-05-14T21:56:59.519Z,99081.48
2019-05-14T21:59:28.942Z,99081.75
2019-05-14T22:01:58.988Z,99080.17
2019-05-14T22:04:28.944Z,99077.40
2019-05-14T22:06:58.659Z,99077.02
2019-05-14T22:09:28.520Z,99073.16
2019-05-14T22:11:58.346Z,99076.43
2019-05-14T22:14:28.536Z,99070.60
2019-05-14T22:16:58.417Z,99071.94
2019-05-14T22:19:28.659Z,99065.44
2019-05-14T22:22:04.091Z,99061.31
2019-05-14T22:24:33.480Z,99064.57
2019-05-14T22:27:02.945Z,99058.05
2019-05-14T22:29:32.498Z,99057.92
2019-05-14T22:32:03.026Z,99056.83
2019-05-14T22:34:32.477Z,99058.78
2019-05-14T22:37:06.714Z,99052.13
2019-05-14T22:39:38.908Z,99055.86
2019-05-14T22:42:09.225Z,99052.35
2019-05-14T22:44:38.883Z,99054.89
2019-05-14T22:47:08.337Z,99059.00
2019-05-14T22:49:37.857Z,99056.59
2019-05-14T22:52:08.290Z,99060.11
2019-05-14T22:54:38.622Z,99056.95
2019-05-14T22:57:08.433Z,99053.33
2019-05-14T22:59:39.230Z,99051.63
2019-05-14T23:02:11.362Z,99055.52
2019-05-14T23:04:40.121Z,99051.63
2019-05-14T23:07:09.608Z,99053.69
2019-05-14T23:09:39.035Z,99052.86
2019-05-14T23:12:12.058Z,99058.89
2019-05-14T23:14:39.661Z,99054.40
2019-05-14T23:17:09.180Z,99058.39
2019-05-14T23:19:38.556Z,99057.55
2019-05-14T23:22:07.947Z,99059.62
2019-05-14T23:24:39.082Z,99063.96
2019-05-14T23:27:08.767Z,99058.39
2019-05-14T23:29:38.585Z,99065.04
2019-05-14T23:32:08.280Z,99063.96
2019-05-14T23:34:38.096Z,99068.56
2019-05-14T23:37:08.201Z,99063.34
2019-05-14T23:39:38.467Z,99055.86
2019-05-14T23:42:09.112Z,99056.34
2019-05-14T23:44:38.664Z,99065.80
2019-05-14T23:47:08.355Z,99060.20
2019-05-14T23:49:38.921Z,99063.84
2019-05-14T23:52:08.470Z,99065.18
2019-05-14T23:54:38.543Z,99066.99
2019-05-14T23:57:08.907Z,99068.31
2019-05-14T23:59:39.775Z,99068.56
